Aérodrome :
LOGIN :

S'inscrire | Disclaimer

   EN    FR    IT 

 










Légende :    VFR   VFR Marginal   IFR   IFR Intensif   IFR Très Intensif
Visi : 
Plafond : 
>= 8 km
>= 3000ft
5 à 8 km
1000 à 3000 ft
1500m à 5 km
500 à 1000 ft
800 à 1500m
200 à 500 ft
< 800m
< 200 ft
Symboles :   Orages  Brouillard  Fortes neiges  Fortes précipitations  Vent > 20 kt
SIGMETs :   Divers  Orages  Givrage  Turbulence  Onde Orograph.  Cendres Volcan.







- Altitude de l'aérodrome : 870 ft
- Code IATA : ETZ
- Voir les cartes d'approche


LFJL - Metz Nancy Lorraine

DERNIER METAR :
  • 251930Z AUTO 27008KT 9999 RA SCT039 OVC045 12/10 Q1016 TEMPO 4000 SHRA SCT030TCU

METARs EXPIRÉS :
  • 251900Z AUTO 25007KT 9999 FEW023/// SCT031/// BKN042/// ///TCU 12/11 Q1015 TEMPO 4000 SHRA
  • 251830Z AUTO 26009KT 9999 FEW021 SCT030 BKN060 12/11 Q1015 TEMPO 4000 SHRA SCT030TCU
  • 251800Z AUTO 27009KT 9999 -RA FEW012/// SCT037/// BKN046/// ///TCU 12/10 Q1015 TEMPO 4000 SHRA
  • 251730Z AUTO 30009KT 2500 1100 R22/1800U R04/1600D +RA BR FEW006/// SCT016/// BKN026/// ///TCU 12/11 Q1015 TEMPO 4000 SHRA
  • 251700Z AUTO 32010KT 9999 FEW019/// BKN033/// BKN040/// ///CB 13/10 Q1014 TEMPO 28015G27KT 4000 SHRA

TAF TAF LFJL
Valide du 25 à 18h jusqu'au 26 à 18h UTC


251700Z 2518/2618 25008KT 9999 SCT030 BKN060
TEMPO 2518/2522 28012G22KT 4000 SHRA SCT030TCU
PROB30
TEMPO 2606/2608 BKN014
BECMG 2615/2618 CAVOK
Pas de NOTAMs connus pour ce terrain.



MET'MAP, la Météo Aéronautique d'un coup d'oeil ! - Copyright ORBIFLY Décembre 2007 - Disclaimer

ORBIFLY MET'MAP TEAM :

Programmation & Développement : Alexandra Zaïnal
Conception & Développement : Baudouin d'Aumeries
Co-Programmation & Développement : Marc-Olivier Méhu
Soutien technique & logistique : Manuel Goepfert

Contact : metmap@orbifly.com




SOURCES & CREDITS :

   NOAA